createdAt,value
2022-10-25T00:01:26.283Z,100815.38
2022-10-25T00:09:01.706Z,100815.31
2022-10-25T00:16:37.537Z,100814.34
2022-10-25T00:24:14.401Z,100820.56
2022-10-25T00:31:48.968Z,100821.38
2022-10-25T00:39:23.955Z,100820.47
2022-10-25T00:46:57.623Z,100818.59
2022-10-25T00:54:37.571Z,100824.78
2022-10-25T01:02:13.411Z,100825.69
2022-10-25T01:09:48.983Z,100818.59
2022-10-25T01:17:30.317Z,100819.50
2022-10-25T01:25:25.450Z,100816.88
2022-10-25T01:33:10.681Z,100824.03
2022-10-25T01:40:53.404Z,100819.63
2022-10-25T01:48:33.153Z,100817.91
2022-10-25T01:56:07.683Z,100812.56
2022-10-25T02:03:50.429Z,100803.66
2022-10-25T02:11:26.181Z,100812.63
2022-10-25T02:19:04.789Z,100824.22
2022-10-25T02:26:41.232Z,100824.25
2022-10-25T02:34:16.629Z,100814.44
2022-10-25T02:41:50.232Z,100820.72
2022-10-25T02:49:25.541Z,100822.50
2022-10-25T02:56:59.216Z,100818.06
2022-10-25T03:04:35.237Z,100834.13
2022-10-25T03:12:08.897Z,100837.75
2022-10-25T03:19:43.898Z,100845.81
2022-10-25T03:27:18.018Z,100854.78
2022-10-25T03:34:52.985Z,100862.00
2022-10-25T03:42:27.032Z,100864.69
2022-10-25T03:50:02.192Z,100874.53
2022-10-25T03:57:35.795Z,100879.03
2022-10-25T04:05:11.068Z,100887.94
2022-10-25T04:12:44.737Z,100896.00
2022-10-25T04:20:20.666Z,100886.22
2022-10-25T04:27:54.499Z,100888.91
2022-10-25T04:35:29.472Z,100889.81
2022-10-25T04:43:03.194Z,100896.94
2022-10-25T04:50:38.515Z,100890.66
2022-10-25T04:58:12.263Z,100884.41
2022-10-25T05:05:47.380Z,100887.06
2022-10-25T05:13:20.987Z,100890.59
2022-10-25T05:20:56.755Z,100891.50
2022-10-25T05:28:30.421Z,100894.09
2022-10-25T05:36:06.004Z,100914.66
2022-10-25T05:43:40.061Z,100910.19
2022-10-25T05:59:12.889Z,100928.97
2022-10-25T06:06:52.093Z,100938.88
2022-10-25T06:14:25.697Z,100954.09
2022-10-25T06:22:01.935Z,100959.47
2022-10-25T06:29:35.557Z,100960.38
2022-10-25T06:37:10.970Z,100972.97
2022-10-25T06:44:44.872Z,100980.16
2022-10-25T06:52:20.166Z,100989.13
2022-10-25T06:59:53.903Z,100991.88
2022-10-25T07:07:28.938Z,101007.16
2022-10-25T07:15:02.446Z,101014.31
2022-10-25T07:22:38.415Z,101020.63
2022-10-25T07:30:12.958Z,101026.88
2022-10-25T07:37:48.328Z,101021.50
2022-10-25T07:45:24.404Z,101035.91
2022-10-25T07:53:01.715Z,101031.50
2022-10-25T08:00:36.455Z,101038.75
2022-10-25T08:08:11.900Z,101037.84
2022-10-25T08:15:51.079Z,101041.47
2022-10-25T08:23:26.327Z,101048.59
2022-10-25T08:31:01.361Z,101047.66
2022-10-25T08:38:36.663Z,101056.63
2022-10-25T08:46:13.741Z,101061.13
2022-10-25T09:01:30.842Z,101070.41
2022-10-25T09:09:17.604Z,101061.47
2022-10-25T09:16:52.802Z,101067.75
2022-10-25T09:24:30.782Z,101077.66
2022-10-25T09:32:08.781Z,101078.53
2022-10-25T09:39:47.229Z,101086.66
2022-10-25T09:47:31.004Z,101097.47
2022-10-25T09:55:25.189Z,101097.47
2022-10-25T10:02:58.935Z,101107.38
2022-10-25T10:10:36.595Z,101110.97
2022-10-25T10:18:24.953Z,101108.28
2022-10-25T10:26:02.856Z,101105.59
2022-10-25T10:33:38.362Z,101115.47
2022-10-25T10:41:23.525Z,101121.78
2022-10-25T10:48:59.168Z,101122.66
2022-10-25T10:56:34.366Z,101132.56
2022-10-25T11:04:08.036Z,101129.00
2022-10-25T11:11:43.707Z,101126.34
2022-10-25T11:19:40.720Z,101121.88
2022-10-25T11:27:25.096Z,101127.25
2022-10-25T11:35:11.092Z,101128.16
2022-10-25T11:42:59.318Z,101124.53
2022-10-25T11:50:41.679Z,101124.53
2022-10-25T11:58:31.239Z,101123.63
2022-10-25T12:06:16.823Z,101136.25
2022-10-25T12:13:54.706Z,101138.91
2022-10-25T12:21:33.383Z,101141.56
2022-10-25T12:29:15.472Z,101148.78
2022-10-25T12:36:53.934Z,101139.78
2022-10-25T12:44:48.326Z,101144.25
2022-10-25T12:52:32.311Z,101152.31
2022-10-25T13:00:13.536Z,101149.63
2022-10-25T13:07:49.430Z,101161.34
2022-10-25T13:15:25.030Z,101164.06
2022-10-25T13:22:58.816Z,101175.75
2022-10-25T13:30:33.943Z,101187.44
2022-10-25T13:38:09.475Z,101199.06
2022-10-25T13:45:47.593Z,101208.91
2022-10-25T13:53:24.217Z,101205.25
2022-10-25T14:01:37.917Z,101211.50
2022-10-25T14:09:24.520Z,101204.31
2022-10-25T14:17:10.321Z,101221.34
2022-10-25T14:24:48.001Z,101220.41
2022-10-25T14:32:23.713Z,101218.56
2022-10-25T14:39:57.898Z,101216.78
2022-10-25T14:47:36.339Z,101217.63
2022-10-25T14:55:19.861Z,101213.13
2022-10-25T15:03:01.379Z,101217.56
2022-10-25T15:10:44.430Z,101214.84
2022-10-25T15:18:40.408Z,101223.81
2022-10-25T15:26:28.466Z,101227.41
2022-10-25T15:34:05.775Z,101219.31
2022-10-25T15:41:39.790Z,101217.50
2022-10-25T15:49:14.861Z,101224.56
2022-10-25T15:56:48.910Z,101221.78
2022-10-25T16:04:23.872Z,101219.94
2022-10-25T16:11:57.458Z,101230.53
2022-10-25T16:19:32.559Z,101240.28
2022-10-25T16:27:06.253Z,101247.34
2022-10-25T16:34:46.145Z,101263.34
2022-10-25T16:42:31.449Z,101268.59
2022-10-25T16:50:07.800Z,101254.13
2022-10-25T16:57:41.367Z,101272.81
2022-10-25T17:05:20.256Z,101286.97
2022-10-25T17:13:01.506Z,101288.63
2022-10-25T17:20:37.455Z,101276.81
2022-10-25T17:28:11.301Z,101290.06
2022-10-25T17:35:46.372Z,101302.44
2022-10-25T17:43:21.246Z,101314.72
2022-10-25T17:51:01.751Z,101316.41
2022-10-25T17:58:35.531Z,101316.22
2022-10-25T18:06:17.308Z,101324.13
2022-10-25T18:13:53.305Z,101328.38
2022-10-25T18:21:29.404Z,101334.44
2022-10-25T18:29:08.464Z,101336.94
2022-10-25T18:36:43.864Z,101337.63
2022-10-25T18:44:18.229Z,101349.06
2022-10-25T18:51:54.118Z,101342.53
2022-10-25T18:59:27.950Z,101336.03
2022-10-25T19:07:03.059Z,101335.91
2022-10-25T19:14:36.678Z,101340.25
2022-10-25T19:22:17.048Z,101330.25
2022-10-25T19:29:51.147Z,101336.31
2022-10-25T19:37:29.998Z,101341.47
2022-10-25T19:45:09.403Z,101335.97
2022-10-25T19:52:51.524Z,101347.31
2022-10-25T20:00:36.153Z,101346.22
2022-10-25T20:08:12.710Z,101363.09
2022-10-25T20:15:52.447Z,101366.41
2022-10-25T20:23:28.482Z,101371.59
2022-10-25T20:31:10.171Z,101375.00
2022-10-25T20:38:48.736Z,101389.16
2022-10-25T20:46:25.767Z,101393.34
